KDMN/DMN METAR and TAF weather

Enter ICAO airport designator
Station Type Date Time Source
KDMN METAR 2022/08/13 12:53 UTC NOAA

KDMN 131253Z AUTO 18003KT 10SM CLR 19/17 A3020 RMK AO2 SLP152 T01890172


Station Type Date Time Source
KDMN Decoded METAR 2022/08/13 12:53 UTC NOAA

DEMING MUNICIPAL AIRPORT, NM, United States (KDMN) 32-16N 107-43W 1311M
Aug 13, 2022 - 08:53 AM EDT / 2022.08.13 1253 UTC
Wind: from the S (180 degrees) at 3 MPH (3 KT):0
Visibility: 10 mile(s):0
Sky conditions: clear
Temperature: 66.0 F (18.9 C)
Dew Point: 63.0 F (17.2 C)
Relative Humidity: 89%
Pressure (altimeter): 30.2 in. Hg (1022 hPa)
ob: KDMN 131253Z AUTO 18003KT 10SM CLR 19/17 A3020 RMK AO2 SLP152 T01890172
cycle: 13

Station Type Date Time Source
KDMN TAF 2022/08/13 12:42 UTC NOAA

TAF KDMN 131140Z 1312/1412 VRB05KT P6SM SCT100 SCT250
FM131900 12008KT P6SM SCT080 BKN150

Example: see airport list